sensor_id;sensor_type;location;lat;lon;timestamp;P1;durP1;ratioP1;P2;durP2;ratioP2
64936;SDS011;51452;47.698;19.050;2022-12-18T00:01:35;28.87;;;10.33;;
64936;SDS011;51452;47.698;19.050;2022-12-18T00:04:02;25.87;;;9.80;;
64936;SDS011;51452;47.698;19.050;2022-12-18T00:06:29;28.63;;;10.57;;
64936;SDS011;51452;47.698;19.050;2022-12-18T00:08:55;27.13;;;10.73;;
64936;SDS011;51452;47.698;19.050;2022-12-18T00:11:23;26.20;;;10.60;;
64936;SDS011;51452;47.698;19.050;2022-12-18T00:13:50;31.73;;;11.23;;
64936;SDS011;51452;47.698;19.050;2022-12-18T00:16:17;31.50;;;10.40;;
64936;SDS011;51452;47.698;19.050;2022-12-18T00:18:46;27.33;;;10.30;;
64936;SDS011;51452;47.698;19.050;2022-12-18T00:21:12;30.37;;;11.43;;
64936;SDS011;51452;47.698;19.050;2022-12-18T00:23:39;27.00;;;10.30;;
64936;SDS011;51452;47.698;19.050;2022-12-18T00:26:12;28.23;;;11.00;;
64936;SDS011;51452;47.698;19.050;2022-12-18T00:28:41;23.98;;;10.05;;
64936;SDS011;51452;47.698;19.050;2022-12-18T00:31:09;34.03;;;11.53;;
64936;SDS011;51452;47.698;19.050;2022-12-18T00:33:36;29.40;;;10.03;;
64936;SDS011;51452;47.698;19.050;2022-12-18T00:36:06;28.03;;;10.17;;
64936;SDS011;51452;47.698;19.050;2022-12-18T00:38:35;28.00;;;10.70;;
64936;SDS011;51452;47.698;19.050;2022-12-18T00:41:01;28.70;;;11.17;;
64936;SDS011;51452;47.698;19.050;2022-12-18T00:43:26;28.30;;;10.30;;
64936;SDS011;51452;47.698;19.050;2022-12-18T00:45:52;29.87;;;11.13;;
64936;SDS011;51452;47.698;19.050;2022-12-18T00:48:18;26.63;;;10.23;;
64936;SDS011;51452;47.698;19.050;2022-12-18T00:50:43;31.30;;;10.80;;
64936;SDS011;51452;47.698;19.050;2022-12-18T00:53:09;29.17;;;10.80;;
64936;SDS011;51452;47.698;19.050;2022-12-18T00:55:34;27.27;;;11.33;;
64936;SDS011;51452;47.698;19.050;2022-12-18T00:58:00;33.43;;;10.90;;
64936;SDS011;51452;47.698;19.050;2022-12-18T01:00:25;27.00;;;10.37;;
64936;SDS011;51452;47.698;19.050;2022-12-18T01:02:51;32.73;;;10.47;;
64936;SDS011;51452;47.698;19.050;2022-12-18T01:05:16;30.50;;;10.73;;
64936;SDS011;51452;47.698;19.050;2022-12-18T01:07:41;29.10;;;10.03;;
64936;SDS011;51452;47.698;19.050;2022-12-18T01:10:07;27.90;;;9.37;;
64936;SDS011;51452;47.698;19.050;2022-12-18T01:12:35;29.73;;;10.77;;
64936;SDS011;51452;47.698;19.050;2022-12-18T01:15:07;28.97;;;11.73;;
64936;SDS011;51452;47.698;19.050;2022-12-18T01:17:33;30.43;;;10.93;;
64936;SDS011;51452;47.698;19.050;2022-12-18T01:19:59;29.03;;;11.00;;
64936;SDS011;51452;47.698;19.050;2022-12-18T01:22:27;25.90;;;9.97;;
64936;SDS011;51452;47.698;19.050;2022-12-18T01:24:53;26.63;;;10.30;;
64936;SDS011;51452;47.698;19.050;2022-12-18T01:27:18;30.20;;;11.90;;
64936;SDS011;51452;47.698;19.050;2022-12-18T01:29:43;27.43;;;10.87;;
64936;SDS011;51452;47.698;19.050;2022-12-18T01:32:09;25.83;;;10.40;;
64936;SDS011;51452;47.698;19.050;2022-12-18T01:34:37;29.27;;;10.30;;
64936;SDS011;51452;47.698;19.050;2022-12-18T01:37:06;28.77;;;10.97;;
64936;SDS011;51452;47.698;19.050;2022-12-18T01:39:32;23.10;;;9.20;;
64936;SDS011;51452;47.698;19.050;2022-12-18T01:41:58;31.07;;;10.50;;
64936;SDS011;51452;47.698;19.050;2022-12-18T01:47:14;25.87;;;9.83;;
64936;SDS011;51452;47.698;19.050;2022-12-18T01:49:49;22.10;;;9.20;;
64936;SDS011;51452;47.698;19.050;2022-12-18T01:52:18;26.23;;;9.73;;
64936;SDS011;51452;47.698;19.050;2022-12-18T01:54:45;21.70;;;8.87;;
64936;SDS011;51452;47.698;19.050;2022-12-18T01:57:12;24.83;;;9.13;;
64936;SDS011;51452;47.698;19.050;2022-12-18T01:59:38;25.40;;;9.97;;
64936;SDS011;51452;47.698;19.050;2022-12-18T02:02:05;21.67;;;8.50;;
64936;SDS011;51452;47.698;19.050;2022-12-18T02:04:32;27.33;;;10.27;;
64936;SDS011;51452;47.698;19.050;2022-12-18T02:09:46;25.47;;;9.70;;
64936;SDS011;51452;47.698;19.050;2022-12-18T02:12:20;20.27;;;8.70;;
64936;SDS011;51452;47.698;19.050;2022-12-18T02:17:22;21.10;;;8.67;;
64936;SDS011;51452;47.698;19.050;2022-12-18T02:22:50;23.43;;;9.23;;
64936;SDS011;51452;47.698;19.050;2022-12-18T02:28:22;21.20;;;8.30;;
64936;SDS011;51452;47.698;19.050;2022-12-18T02:30:50;19.70;;;8.70;;
64936;SDS011;51452;47.698;19.050;2022-12-18T02:33:21;24.07;;;8.97;;
64936;SDS011;51452;47.698;19.050;2022-12-18T02:36:01;22.37;;;9.67;;
64936;SDS011;51452;47.698;19.050;2022-12-18T02:38:28;28.07;;;9.77;;
64936;SDS011;51452;47.698;19.050;2022-12-18T02:41:03;23.23;;;8.87;;
64936;SDS011;51452;47.698;19.050;2022-12-18T02:43:30;24.37;;;9.77;;
64936;SDS011;51452;47.698;19.050;2022-12-18T02:45:57;23.13;;;8.80;;
64936;SDS011;51452;47.698;19.050;2022-12-18T02:48:25;22.67;;;9.63;;
64936;SDS011;51452;47.698;19.050;2022-12-18T02:53:48;23.17;;;8.87;;
64936;SDS011;51452;47.698;19.050;2022-12-18T02:56:20;19.83;;;8.53;;
64936;SDS011;51452;47.698;19.050;2022-12-18T02:59:04;25.00;;;8.57;;
64936;SDS011;51452;47.698;19.050;2022-12-18T03:07:11;17.07;;;7.53;;
64936;SDS011;51452;47.698;19.050;2022-12-18T03:09:46;25.73;;;8.87;;
64936;SDS011;51452;47.698;19.050;2022-12-18T03:12:19;22.40;;;8.77;;
64936;SDS011;51452;47.698;19.050;2022-12-18T03:19:56;24.00;;;8.00;;
64936;SDS011;51452;47.698;19.050;2022-12-18T03:22:27;19.57;;;7.97;;
64936;SDS011;51452;47.698;19.050;2022-12-18T03:24:55;22.03;;;8.47;;
64936;SDS011;51452;47.698;19.050;2022-12-18T03:27:22;18.97;;;8.60;;
64936;SDS011;51452;47.698;19.050;2022-12-18T03:29:55;19.33;;;8.20;;
64936;SDS011;51452;47.698;19.050;2022-12-18T03:32:33;21.97;;;8.00;;
64936;SDS011;51452;47.698;19.050;2022-12-18T03:35:04;20.07;;;7.40;;
64936;SDS011;51452;47.698;19.050;2022-12-18T03:37:31;18.77;;;7.63;;
64936;SDS011;51452;47.698;19.050;2022-12-18T03:39:57;21.77;;;8.47;;
64936;SDS011;51452;47.698;19.050;2022-12-18T03:48:07;22.60;;;8.93;;
64936;SDS011;51452;47.698;19.050;2022-12-18T03:50:45;21.30;;;8.53;;
64936;SDS011;51452;47.698;19.050;2022-12-18T03:53:22;22.30;;;9.03;;
64936;SDS011;51452;47.698;19.050;2022-12-18T03:55:51;18.43;;;7.70;;
64936;SDS011;51452;47.698;19.050;2022-12-18T03:58:17;25.60;;;8.63;;
64936;SDS011;51452;47.698;19.050;2022-12-18T04:00:45;22.40;;;7.97;;
64936;SDS011;51452;47.698;19.050;2022-12-18T04:03:12;22.70;;;8.70;;
64936;SDS011;51452;47.698;19.050;2022-12-18T04:05:39;21.93;;;7.70;;
64936;SDS011;51452;47.698;19.050;2022-12-18T04:08:07;23.10;;;8.27;;
64936;SDS011;51452;47.698;19.050;2022-12-18T04:10:32;19.63;;;8.00;;
64936;SDS011;51452;47.698;19.050;2022-12-18T04:12:58;25.50;;;8.13;;
64936;SDS011;51452;47.698;19.050;2022-12-18T04:15:23;22.57;;;8.37;;
64936;SDS011;51452;47.698;19.050;2022-12-18T04:17:49;27.20;;;10.53;;
64936;SDS011;51452;47.698;19.050;2022-12-18T04:20:15;25.23;;;8.10;;
64936;SDS011;51452;47.698;19.050;2022-12-18T04:22:41;24.57;;;8.37;;
64936;SDS011;51452;47.698;19.050;2022-12-18T04:25:07;25.67;;;8.37;;
64936;SDS011;51452;47.698;19.050;2022-12-18T04:27:33;21.67;;;8.13;;
64936;SDS011;51452;47.698;19.050;2022-12-18T04:29:58;26.63;;;9.40;;
64936;SDS011;51452;47.698;19.050;2022-12-18T04:32:24;20.90;;;8.23;;
64936;SDS011;51452;47.698;19.050;2022-12-18T04:34:49;22.67;;;8.07;;
64936;SDS011;51452;47.698;19.050;2022-12-18T04:37:36;20.90;;;7.87;;
64936;SDS011;51452;47.698;19.050;2022-12-18T04:40:02;26.17;;;8.57;;
64936;SDS011;51452;47.698;19.050;2022-12-18T04:42:28;21.93;;;9.07;;
64936;SDS011;51452;47.698;19.050;2022-12-18T04:44:53;21.50;;;9.43;;
64936;SDS011;51452;47.698;19.050;2022-12-18T04:47:19;23.50;;;9.57;;
64936;SDS011;51452;47.698;19.050;2022-12-18T04:49:44;27.23;;;10.20;;
64936;SDS011;51452;47.698;19.050;2022-12-18T04:52:09;29.40;;;9.43;;
64936;SDS011;51452;47.698;19.050;2022-12-18T04:54:35;27.47;;;9.67;;
64936;SDS011;51452;47.698;19.050;2022-12-18T04:57:00;32.03;;;10.23;;
64936;SDS011;51452;47.698;19.050;2022-12-18T04:59:26;26.87;;;9.43;;
64936;SDS011;51452;47.698;19.050;2022-12-18T05:01:51;26.30;;;8.53;;
64936;SDS011;51452;47.698;19.050;2022-12-18T05:04:16;20.43;;;8.47;;
64936;SDS011;51452;47.698;19.050;2022-12-18T05:06:42;23.37;;;8.13;;
64936;SDS011;51452;47.698;19.050;2022-12-18T05:09:07;19.27;;;7.33;;
64936;SDS011;51452;47.698;19.050;2022-12-18T05:11:35;20.17;;;7.73;;
64936;SDS011;51452;47.698;19.050;2022-12-18T05:14:01;17.57;;;7.07;;
64936;SDS011;51452;47.698;19.050;2022-12-18T05:16:26;16.07;;;7.00;;
64936;SDS011;51452;47.698;19.050;2022-12-18T05:18:52;19.27;;;8.07;;
64936;SDS011;51452;47.698;19.050;2022-12-18T05:21:17;21.97;;;7.83;;
64936;SDS011;51452;47.698;19.050;2022-12-18T05:23:42;22.17;;;7.63;;
64936;SDS011;51452;47.698;19.050;2022-12-18T05:26:08;18.13;;;7.23;;
64936;SDS011;51452;47.698;19.050;2022-12-18T05:28:34;18.73;;;7.30;;
64936;SDS011;51452;47.698;19.050;2022-12-18T05:31:04;25.07;;;8.90;;
64936;SDS011;51452;47.698;19.050;2022-12-18T05:33:31;21.20;;;8.77;;
64936;SDS011;51452;47.698;19.050;2022-12-18T05:35:58;20.47;;;7.47;;
64936;SDS011;51452;47.698;19.050;2022-12-18T05:38:26;24.37;;;8.80;;
64936;SDS011;51452;47.698;19.050;2022-12-18T05:40:52;25.40;;;8.87;;
64936;SDS011;51452;47.698;19.050;2022-12-18T05:43:19;23.60;;;8.63;;
64936;SDS011;51452;47.698;19.050;2022-12-18T05:45:46;24.07;;;9.60;;
64936;SDS011;51452;47.698;19.050;2022-12-18T05:48:12;25.93;;;9.40;;
64936;SDS011;51452;47.698;19.050;2022-12-18T05:50:38;32.87;;;12.17;;
64936;SDS011;51452;47.698;19.050;2022-12-18T05:53:06;35.00;;;12.57;;
64936;SDS011;51452;47.698;19.050;2022-12-18T05:55:33;43.37;;;13.17;;
64936;SDS011;51452;47.698;19.050;2022-12-18T05:58:02;34.37;;;11.57;;
64936;SDS011;51452;47.698;19.050;2022-12-18T06:00:28;28.03;;;11.20;;
64936;SDS011;51452;47.698;19.050;2022-12-18T06:02:54;36.77;;;13.90;;
64936;SDS011;51452;47.698;19.050;2022-12-18T06:05:19;44.17;;;17.63;;
64936;SDS011;51452;47.698;19.050;2022-12-18T06:07:45;42.57;;;16.50;;
64936;SDS011;51452;47.698;19.050;2022-12-18T06:10:10;37.50;;;13.83;;
64936;SDS011;51452;47.698;19.050;2022-12-18T06:12:36;28.83;;;11.93;;
64936;SDS011;51452;47.698;19.050;2022-12-18T06:15:02;25.83;;;10.23;;
64936;SDS011;51452;47.698;19.050;2022-12-18T06:17:29;21.57;;;8.90;;
64936;SDS011;51452;47.698;19.050;2022-12-18T06:19:55;22.43;;;9.70;;
64936;SDS011;51452;47.698;19.050;2022-12-18T06:22:20;22.87;;;9.20;;
64936;SDS011;51452;47.698;19.050;2022-12-18T06:24:46;28.33;;;9.90;;
64936;SDS011;51452;47.698;19.050;2022-12-18T06:27:11;27.50;;;9.77;;
64936;SDS011;51452;47.698;19.050;2022-12-18T06:29:37;26.70;;;10.40;;
64936;SDS011;51452;47.698;19.050;2022-12-18T06:32:02;25.97;;;9.77;;
64936;SDS011;51452;47.698;19.050;2022-12-18T06:34:28;22.67;;;10.73;;
64936;SDS011;51452;47.698;19.050;2022-12-18T06:36:53;27.77;;;10.50;;
64936;SDS011;51452;47.698;19.050;2022-12-18T06:39:18;31.43;;;10.63;;
64936;SDS011;51452;47.698;19.050;2022-12-18T06:41:44;27.03;;;10.07;;
64936;SDS011;51452;47.698;19.050;2022-12-18T06:44:09;26.73;;;9.87;;
64936;SDS011;51452;47.698;19.050;2022-12-18T06:46:35;27.00;;;10.07;;
64936;SDS011;51452;47.698;19.050;2022-12-18T06:49:00;24.20;;;9.03;;
64936;SDS011;51452;47.698;19.050;2022-12-18T06:51:25;23.53;;;9.67;;
64936;SDS011;51452;47.698;19.050;2022-12-18T06:53:51;28.03;;;10.17;;
64936;SDS011;51452;47.698;19.050;2022-12-18T06:56:16;23.77;;;9.23;;
64936;SDS011;51452;47.698;19.050;2022-12-18T06:58:42;23.33;;;8.17;;
64936;SDS011;51452;47.698;19.050;2022-12-18T07:01:10;27.00;;;9.27;;
64936;SDS011;51452;47.698;19.050;2022-12-18T07:03:36;23.03;;;9.00;;
64936;SDS011;51452;47.698;19.050;2022-12-18T07:06:03;22.27;;;8.53;;
64936;SDS011;51452;47.698;19.050;2022-12-18T07:08:29;20.77;;;9.07;;
64936;SDS011;51452;47.698;19.050;2022-12-18T07:10:55;22.60;;;8.37;;
64936;SDS011;51452;47.698;19.050;2022-12-18T07:13:20;22.30;;;8.13;;
64936;SDS011;51452;47.698;19.050;2022-12-18T07:15:55;25.00;;;10.03;;
64936;SDS011;51452;47.698;19.050;2022-12-18T07:18:20;26.27;;;10.60;;
64936;SDS011;51452;47.698;19.050;2022-12-18T07:20:45;27.07;;;10.57;;
64936;SDS011;51452;47.698;19.050;2022-12-18T07:23:11;25.53;;;10.33;;
64936;SDS011;51452;47.698;19.050;2022-12-18T07:25:37;23.93;;;9.20;;
64936;SDS011;51452;47.698;19.050;2022-12-18T07:28:02;26.10;;;10.00;;
64936;SDS011;51452;47.698;19.050;2022-12-18T07:30:28;29.70;;;10.73;;
64936;SDS011;51452;47.698;19.050;2022-12-18T07:32:54;31.30;;;14.03;;
64936;SDS011;51452;47.698;19.050;2022-12-18T07:35:20;33.63;;;12.50;;
64936;SDS011;51452;47.698;19.050;2022-12-18T07:37:45;32.13;;;12.07;;
64936;SDS011;51452;47.698;19.050;2022-12-18T07:40:11;34.20;;;13.73;;
64936;SDS011;51452;47.698;19.050;2022-12-18T07:42:36;34.40;;;13.17;;
64936;SDS011;51452;47.698;19.050;2022-12-18T07:45:02;33.93;;;12.50;;
64936;SDS011;51452;47.698;19.050;2022-12-18T07:47:28;31.67;;;11.47;;
64936;SDS011;51452;47.698;19.050;2022-12-18T07:49:54;35.87;;;13.90;;
64936;SDS011;51452;47.698;19.050;2022-12-18T07:52:20;32.03;;;11.87;;
64936;SDS011;51452;47.698;19.050;2022-12-18T07:54:45;25.53;;;10.70;;
64936;SDS011;51452;47.698;19.050;2022-12-18T07:57:13;25.17;;;9.30;;
64936;SDS011;51452;47.698;19.050;2022-12-18T07:59:39;23.70;;;10.33;;
64936;SDS011;51452;47.698;19.050;2022-12-18T08:02:04;24.03;;;10.50;;
64936;SDS011;51452;47.698;19.050;2022-12-18T08:04:30;26.30;;;9.97;;
64936;SDS011;51452;47.698;19.050;2022-12-18T08:06:59;20.47;;;8.23;;
64936;SDS011;51452;47.698;19.050;2022-12-18T08:09:24;22.37;;;8.97;;
64936;SDS011;51452;47.698;19.050;2022-12-18T08:11:49;18.53;;;7.70;;
64936;SDS011;51452;47.698;19.050;2022-12-18T08:14:15;22.03;;;8.93;;
64936;SDS011;51452;47.698;19.050;2022-12-18T08:16:41;22.60;;;8.20;;
64936;SDS011;51452;47.698;19.050;2022-12-18T08:19:06;22.30;;;8.20;;
64936;SDS011;51452;47.698;19.050;2022-12-18T08:21:32;28.47;;;10.70;;
64936;SDS011;51452;47.698;19.050;2022-12-18T08:23:58;26.70;;;10.83;;
64936;SDS011;51452;47.698;19.050;2022-12-18T08:26:25;24.37;;;9.20;;
64936;SDS011;51452;47.698;19.050;2022-12-18T08:28:53;20.73;;;9.33;;
64936;SDS011;51452;47.698;19.050;2022-12-18T08:31:20;22.37;;;8.87;;
64936;SDS011;51452;47.698;19.050;2022-12-18T08:33:51;21.07;;;9.07;;
64936;SDS011;51452;47.698;19.050;2022-12-18T08:36:18;24.07;;;8.93;;
64936;SDS011;51452;47.698;19.050;2022-12-18T08:38:44;21.27;;;8.73;;
64936;SDS011;51452;47.698;19.050;2022-12-18T08:41:11;25.00;;;9.70;;
64936;SDS011;51452;47.698;19.050;2022-12-18T08:43:37;21.33;;;9.50;;
64936;SDS011;51452;47.698;19.050;2022-12-18T08:46:22;20.27;;;8.30;;
64936;SDS011;51452;47.698;19.050;2022-12-18T08:48:52;18.07;;;8.67;;
64936;SDS011;51452;47.698;19.050;2022-12-18T08:51:19;24.17;;;9.47;;
64936;SDS011;51452;47.698;19.050;2022-12-18T08:53:45;29.30;;;10.37;;
64936;SDS011;51452;47.698;19.050;2022-12-18T08:56:11;30.20;;;12.23;;
64936;SDS011;51452;47.698;19.050;2022-12-18T08:58:37;32.83;;;13.13;;
64936;SDS011;51452;47.698;19.050;2022-12-18T09:01:03;32.73;;;14.00;;
64936;SDS011;51452;47.698;19.050;2022-12-18T09:03:30;33.93;;;13.43;;
64936;SDS011;51452;47.698;19.050;2022-12-18T09:05:56;28.07;;;11.87;;
64936;SDS011;51452;47.698;19.050;2022-12-18T09:08:22;30.37;;;11.70;;
64936;SDS011;51452;47.698;19.050;2022-12-18T09:10:48;32.30;;;13.80;;
64936;SDS011;51452;47.698;19.050;2022-12-18T09:13:15;33.40;;;14.53;;
64936;SDS011;51452;47.698;19.050;2022-12-18T09:15:42;30.90;;;12.50;;
64936;SDS011;51452;47.698;19.050;2022-12-18T09:18:18;34.47;;;13.50;;
64936;SDS011;51452;47.698;19.050;2022-12-18T09:20:45;38.23;;;16.03;;
64936;SDS011;51452;47.698;19.050;2022-12-18T09:23:10;40.23;;;16.00;;
64936;SDS011;51452;47.698;19.050;2022-12-18T09:25:36;42.40;;;17.03;;
64936;SDS011;51452;47.698;19.050;2022-12-18T09:28:03;41.60;;;17.20;;
64936;SDS011;51452;47.698;19.050;2022-12-18T09:30:34;35.90;;;15.00;;
64936;SDS011;51452;47.698;19.050;2022-12-18T09:33:02;42.90;;;16.57;;
64936;SDS011;51452;47.698;19.050;2022-12-18T09:35:27;39.97;;;16.43;;
64936;SDS011;51452;47.698;19.050;2022-12-18T09:37:53;40.23;;;16.03;;
64936;SDS011;51452;47.698;19.050;2022-12-18T09:40:21;40.30;;;17.27;;
64936;SDS011;51452;47.698;19.050;2022-12-18T09:42:51;46.57;;;18.37;;
64936;SDS011;51452;47.698;19.050;2022-12-18T09:45:20;41.10;;;15.93;;
64936;SDS011;51452;47.698;19.050;2022-12-18T09:47:46;46.60;;;18.37;;
64936;SDS011;51452;47.698;19.050;2022-12-18T09:50:26;36.30;;;15.87;;
64936;SDS011;51452;47.698;19.050;2022-12-18T09:52:57;38.80;;;15.73;;
64936;SDS011;51452;47.698;19.050;2022-12-18T09:55:41;47.53;;;17.83;;
64936;SDS011;51452;47.698;19.050;2022-12-18T10:00:34;44.03;;;17.40;;
64936;SDS011;51452;47.698;19.050;2022-12-18T10:03:08;42.27;;;18.13;;
64936;SDS011;51452;47.698;19.050;2022-12-18T10:11:21;41.67;;;17.07;;
64936;SDS011;51452;47.698;19.050;2022-12-18T10:17:10;42.27;;;17.43;;
64936;SDS011;51452;47.698;19.050;2022-12-18T10:25:09;41.63;;;16.10;;
64936;SDS011;51452;47.698;19.050;2022-12-18T10:27:41;46.23;;;18.13;;
64936;SDS011;51452;47.698;19.050;2022-12-18T10:30:17;51.27;;;19.27;;
64936;SDS011;51452;47.698;19.050;2022-12-18T10:32:44;45.63;;;19.13;;
64936;SDS011;51452;47.698;19.050;2022-12-18T10:35:28;42.97;;;17.57;;
64936;SDS011;51452;47.698;19.050;2022-12-18T10:38:35;42.40;;;18.93;;
64936;SDS011;51452;47.698;19.050;2022-12-18T10:41:03;41.37;;;17.90;;
64936;SDS011;51452;47.698;19.050;2022-12-18T10:43:37;44.43;;;18.10;;
64936;SDS011;51452;47.698;19.050;2022-12-18T10:51:19;46.42;;;18.63;;
64936;SDS011;51452;47.698;19.050;2022-12-18T10:56:20;42.97;;;18.07;;
64936;SDS011;51452;47.698;19.050;2022-12-18T10:58:55;43.83;;;17.80;;
64936;SDS011;51452;47.698;19.050;2022-12-18T11:01:23;40.57;;;17.47;;
64936;SDS011;51452;47.698;19.050;2022-12-18T11:08:43;48.13;;;19.83;;
64936;SDS011;51452;47.698;19.050;2022-12-18T11:11:22;44.43;;;18.13;;
64936;SDS011;51452;47.698;19.050;2022-12-18T11:13:56;39.67;;;18.80;;
64936;SDS011;51452;47.698;19.050;2022-12-18T11:16:23;47.42;;;19.05;;
64936;SDS011;51452;47.698;19.050;2022-12-18T11:18:49;47.03;;;19.33;;
64936;SDS011;51452;47.698;19.050;2022-12-18T11:21:14;47.07;;;18.50;;
64936;SDS011;51452;47.698;19.050;2022-12-18T11:23:50;47.93;;;21.77;;
64936;SDS011;51452;47.698;19.050;2022-12-18T11:26:17;43.10;;;19.80;;
64936;SDS011;51452;47.698;19.050;2022-12-18T11:28:44;49.43;;;20.23;;
64936;SDS011;51452;47.698;19.050;2022-12-18T11:34:03;49.27;;;20.57;;
64936;SDS011;51452;47.698;19.050;2022-12-18T11:36:39;45.37;;;19.97;;
64936;SDS011;51452;47.698;19.050;2022-12-18T11:39:18;44.50;;;20.17;;
64936;SDS011;51452;47.698;19.050;2022-12-18T11:41:52;46.60;;;20.20;;
64936;SDS011;51452;47.698;19.050;2022-12-18T11:49:51;47.20;;;20.07;;
64936;SDS011;51452;47.698;19.050;2022-12-18T11:52:19;50.80;;;20.20;;
64936;SDS011;51452;47.698;19.050;2022-12-18T11:54:56;45.67;;;20.20;;
64936;SDS011;51452;47.698;19.050;2022-12-18T11:57:46;48.17;;;19.97;;
64936;SDS011;51452;47.698;19.050;2022-12-18T12:00:20;47.93;;;18.93;;
64936;SDS011;51452;47.698;19.050;2022-12-18T12:11:08;43.53;;;17.80;;
64936;SDS011;51452;47.698;19.050;2022-12-18T12:16:29;39.93;;;16.57;;
64936;SDS011;51452;47.698;19.050;2022-12-18T12:21:52;38.80;;;16.53;;
64936;SDS011;51452;47.698;19.050;2022-12-18T12:40:54;38.00;;;16.60;;
64936;SDS011;51452;47.698;19.050;2022-12-18T12:43:33;39.87;;;16.80;;
64936;SDS011;51452;47.698;19.050;2022-12-18T12:46:07;41.57;;;16.37;;
64936;SDS011;51452;47.698;19.050;2022-12-18T12:48:40;39.33;;;15.77;;
64936;SDS011;51452;47.698;19.050;2022-12-18T12:51:11;42.60;;;16.45;;
64936;SDS011;51452;47.698;19.050;2022-12-18T12:53:41;40.37;;;16.80;;
64936;SDS011;51452;47.698;19.050;2022-12-18T12:56:07;40.20;;;16.90;;
64936;SDS011;51452;47.698;19.050;2022-12-18T12:58:45;40.07;;;16.83;;
64936;SDS011;51452;47.698;19.050;2022-12-18T13:10:12;36.40;;;14.77;;
64936;SDS011;51452;47.698;19.050;2022-12-18T13:20:34;44.47;;;17.50;;
64936;SDS011;51452;47.698;19.050;2022-12-18T13:25:47;41.87;;;17.57;;
64936;SDS011;51452;47.698;19.050;2022-12-18T13:28:18;35.53;;;17.00;;
64936;SDS011;51452;47.698;19.050;2022-12-18T13:30:56;37.07;;;16.37;;
64936;SDS011;51452;47.698;19.050;2022-12-18T13:40:58;41.93;;;18.47;;
64936;SDS011;51452;47.698;19.050;2022-12-18T13:46:06;37.87;;;17.33;;
64936;SDS011;51452;47.698;19.050;2022-12-18T13:48:47;40.53;;;17.93;;
64936;SDS011;51452;47.698;19.050;2022-12-18T13:51:16;42.57;;;17.70;;
64936;SDS011;51452;47.698;19.050;2022-12-18T13:56:21;38.73;;;16.27;;
64936;SDS011;51452;47.698;19.050;2022-12-18T14:04:27;39.83;;;16.03;;
64936;SDS011;51452;47.698;19.050;2022-12-18T14:07:12;39.80;;;16.90;;
64936;SDS011;51452;47.698;19.050;2022-12-18T14:09:43;32.53;;;14.30;;
64936;SDS011;51452;47.698;19.050;2022-12-18T14:12:39;43.77;;;15.47;;
64936;SDS011;51452;47.698;19.050;2022-12-18T14:20:41;34.10;;;14.63;;
64936;SDS011;51452;47.698;19.050;2022-12-18T14:25:56;40.60;;;16.10;;
64936;SDS011;51452;47.698;19.050;2022-12-18T14:28:21;33.57;;;15.67;;
64936;SDS011;51452;47.698;19.050;2022-12-18T14:30:47;34.50;;;15.40;;
64936;SDS011;51452;47.698;19.050;2022-12-18T14:33:14;38.77;;;16.40;;
64936;SDS011;51452;47.698;19.050;2022-12-18T14:43:23;36.67;;;16.73;;
64936;SDS011;51452;47.698;19.050;2022-12-18T14:45:49;39.73;;;16.90;;
64936;SDS011;51452;47.698;19.050;2022-12-18T14:50:58;38.23;;;17.30;;
64936;SDS011;51452;47.698;19.050;2022-12-18T14:53:35;46.53;;;19.15;;
64936;SDS011;51452;47.698;19.050;2022-12-18T14:58:55;42.95;;;17.58;;
64936;SDS011;51452;47.698;19.050;2022-12-18T15:04:29;38.80;;;17.10;;
64936;SDS011;51452;47.698;19.050;2022-12-18T15:07:17;39.60;;;18.20;;
64936;SDS011;51452;47.698;19.050;2022-12-18T15:10:08;44.43;;;17.97;;
64936;SDS011;51452;47.698;19.050;2022-12-18T15:20:54;42.73;;;17.23;;
64936;SDS011;51452;47.698;19.050;2022-12-18T15:23:38;44.13;;;17.93;;
64936;SDS011;51452;47.698;19.050;2022-12-18T15:26:15;37.67;;;14.97;;
64936;SDS011;51452;47.698;19.050;2022-12-18T15:28:49;38.73;;;16.03;;
64936;SDS011;51452;47.698;19.050;2022-12-18T15:33:42;38.93;;;16.73;;
64936;SDS011;51452;47.698;19.050;2022-12-18T15:36:18;42.27;;;16.50;;
64936;SDS011;51452;47.698;19.050;2022-12-18T15:38:52;36.60;;;15.67;;
64936;SDS011;51452;47.698;19.050;2022-12-18T15:41:20;37.10;;;17.10;;
64936;SDS011;51452;47.698;19.050;2022-12-18T15:43:47;61.93;;;22.70;;
64936;SDS011;51452;47.698;19.050;2022-12-18T15:46:16;60.57;;;22.20;;
64936;SDS011;51452;47.698;19.050;2022-12-18T15:48:43;42.53;;;18.10;;
64936;SDS011;51452;47.698;19.050;2022-12-18T15:51:18;41.70;;;16.43;;
64936;SDS011;51452;47.698;19.050;2022-12-18T15:53:50;36.57;;;14.10;;
64936;SDS011;51452;47.698;19.050;2022-12-18T15:56:18;35.83;;;15.50;;
64936;SDS011;51452;47.698;19.050;2022-12-18T15:59:16;33.17;;;14.30;;
64936;SDS011;51452;47.698;19.050;2022-12-18T16:01:45;33.17;;;13.10;;
64936;SDS011;51452;47.698;19.050;2022-12-18T16:04:14;32.53;;;13.23;;
64936;SDS011;51452;47.698;19.050;2022-12-18T16:06:41;36.77;;;14.00;;
64936;SDS011;51452;47.698;19.050;2022-12-18T16:09:08;34.03;;;12.83;;
64936;SDS011;51452;47.698;19.050;2022-12-18T16:11:35;29.80;;;12.00;;
64936;SDS011;51452;47.698;19.050;2022-12-18T16:14:23;27.83;;;12.20;;
64936;SDS011;51452;47.698;19.050;2022-12-18T16:16:55;31.67;;;12.40;;
64936;SDS011;51452;47.698;19.050;2022-12-18T16:19:22;28.77;;;12.53;;
64936;SDS011;51452;47.698;19.050;2022-12-18T16:21:50;31.33;;;13.90;;
64936;SDS011;51452;47.698;19.050;2022-12-18T16:24:18;35.17;;;13.63;;
64936;SDS011;51452;47.698;19.050;2022-12-18T16:26:47;28.27;;;13.27;;
64936;SDS011;51452;47.698;19.050;2022-12-18T16:29:14;28.77;;;12.43;;
64936;SDS011;51452;47.698;19.050;2022-12-18T16:31:40;30.53;;;11.63;;
64936;SDS011;51452;47.698;19.050;2022-12-18T16:34:18;30.23;;;13.40;;
64936;SDS011;51452;47.698;19.050;2022-12-18T16:36:53;27.77;;;13.00;;
64936;SDS011;51452;47.698;19.050;2022-12-18T16:39:19;33.63;;;13.80;;
64936;SDS011;51452;47.698;19.050;2022-12-18T16:41:45;29.17;;;13.87;;
64936;SDS011;51452;47.698;19.050;2022-12-18T16:44:12;34.23;;;13.10;;
64936;SDS011;51452;47.698;19.050;2022-12-18T16:46:39;29.50;;;13.27;;
64936;SDS011;51452;47.698;19.050;2022-12-18T16:49:08;32.60;;;13.57;;
64936;SDS011;51452;47.698;19.050;2022-12-18T16:51:36;32.13;;;13.17;;
64936;SDS011;51452;47.698;19.050;2022-12-18T16:54:02;37.43;;;15.97;;
64936;SDS011;51452;47.698;19.050;2022-12-18T16:56:29;72.30;;;30.40;;
64936;SDS011;51452;47.698;19.050;2022-12-18T16:58:56;48.33;;;21.27;;
64936;SDS011;51452;47.698;19.050;2022-12-18T17:01:24;36.20;;;15.07;;
64936;SDS011;51452;47.698;19.050;2022-12-18T17:03:51;33.43;;;14.43;;
64936;SDS011;51452;47.698;19.050;2022-12-18T17:06:19;34.80;;;15.83;;
64936;SDS011;51452;47.698;19.050;2022-12-18T17:08:46;35.83;;;15.50;;
64936;SDS011;51452;47.698;19.050;2022-12-18T17:11:12;33.70;;;14.73;;
64936;SDS011;51452;47.698;19.050;2022-12-18T17:13:38;29.07;;;13.67;;
64936;SDS011;51452;47.698;19.050;2022-12-18T17:16:04;35.33;;;14.57;;
64936;SDS011;51452;47.698;19.050;2022-12-18T17:18:32;35.60;;;15.80;;